createdAt,value
2023-05-04T00:00:12.157Z,5.60
2023-05-04T00:02:13.845Z,10.13
2023-05-04T00:04:15.539Z,5.53
2023-05-04T00:06:17.340Z,5.50
2023-05-04T00:08:19.009Z,6.20
2023-05-04T00:10:20.814Z,6.07
2023-05-04T00:12:22.641Z,13.80
2023-05-04T00:14:24.344Z,10.20
2023-05-04T00:16:26.164Z,5.20
2023-05-04T00:18:27.871Z,6.50
2023-05-04T00:20:29.542Z,6.30
2023-05-04T00:22:31.264Z,8.20
2023-05-04T00:24:33.024Z,9.23
2023-05-04T00:26:34.723Z,6.83
2023-05-04T00:28:36.527Z,6.30
2023-05-04T00:30:38.696Z,6.20
2023-05-04T00:32:40.474Z,6.43
2023-05-04T00:34:42.135Z,6.30
2023-05-04T00:36:43.997Z,5.90
2023-05-04T00:38:54.177Z,6.90
2023-05-04T00:40:56.001Z,7.10
2023-05-04T00:42:57.715Z,6.57
2023-05-04T00:44:59.369Z,6.07
2023-05-04T00:47:02.508Z,7.30
2023-05-04T00:49:05.461Z,7.77
2023-05-04T00:51:08.034Z,8.43
2023-05-04T00:53:11.652Z,6.90
2023-05-04T00:55:14.436Z,8.13
2023-05-04T00:57:16.810Z,11.27
2023-05-04T00:59:18.581Z,9.73
2023-05-04T01:01:21.921Z,10.07
2023-05-04T01:03:24.273Z,7.03
2023-05-04T01:05:30.108Z,7.90
2023-05-04T01:08:01.243Z,8.93
2023-05-04T01:10:09.945Z,13.50
2023-05-04T01:12:33.283Z,8.67
2023-05-04T01:14:35.961Z,9.87
2023-05-04T01:16:37.812Z,9.67
2023-05-04T01:18:39.511Z,9.13
2023-05-04T01:20:41.290Z,10.17
2023-05-04T01:22:43.226Z,6.90
2023-05-04T01:24:45.092Z,7.73
2023-05-04T01:26:48.766Z,9.27
2023-05-04T01:28:58.618Z,11.10
2023-05-04T01:31:02.306Z,10.30
2023-05-04T01:33:04.933Z,9.50
2023-05-04T01:35:07.474Z,7.77
2023-05-04T01:37:09.357Z,12.80
2023-05-04T01:39:11.162Z,11.40
2023-05-04T01:41:12.879Z,8.23
2023-05-04T01:43:14.784Z,8.73
2023-05-04T01:45:16.720Z,10.20
2023-05-04T01:47:18.393Z,7.27
2023-05-04T01:49:20.017Z,9.60
2023-05-04T01:51:21.898Z,9.30
2023-05-04T01:53:23.627Z,9.47
2023-05-04T01:55:25.422Z,10.40
2023-05-04T01:57:27.183Z,9.30
2023-05-04T01:59:28.859Z,10.20
2023-05-04T02:01:30.604Z,11.70
2023-05-04T02:03:32.404Z,9.80
2023-05-04T02:05:34.064Z,9.97
2023-05-04T02:07:35.955Z,10.10
2023-05-04T02:09:37.697Z,9.23
2023-05-04T02:11:39.399Z,10.33
2023-05-04T02:13:41.137Z,8.23
2023-05-04T02:15:42.807Z,9.50
2023-05-04T02:17:44.649Z,8.87
2023-05-04T02:19:46.333Z,6.93
2023-05-04T02:21:48.236Z,9.90
2023-05-04T02:23:49.850Z,11.87
2023-05-04T02:25:52.387Z,8.30
2023-05-04T02:27:54.129Z,8.80
2023-05-04T02:29:58.327Z,7.57
2023-05-04T02:32:00.112Z,8.30
2023-05-04T02:34:02.256Z,9.20
2023-05-04T02:36:04.126Z,10.40
2023-05-04T02:38:06.069Z,7.97
2023-05-04T02:40:08.482Z,12.63
2023-05-04T02:42:10.294Z,10.87
2023-05-04T02:44:11.999Z,9.90
2023-05-04T02:46:14.465Z,9.80
2023-05-04T02:48:16.209Z,10.80
2023-05-04T02:50:18.234Z,9.57
2023-05-04T02:52:19.927Z,8.53
2023-05-04T02:54:21.536Z,12.80
2023-05-04T02:56:24.222Z,9.30
2023-05-04T02:58:25.848Z,12.70
2023-05-04T03:00:27.622Z,8.30
2023-05-04T03:02:29.370Z,8.20
2023-05-04T03:04:31.187Z,7.80
2023-05-04T03:06:33.475Z,9.97
2023-05-04T03:08:36.004Z,9.40
2023-05-04T03:10:37.681Z,9.87
2023-05-04T03:12:39.437Z,9.73
2023-05-04T03:14:41.442Z,9.50
2023-05-04T03:16:43.164Z,9.90
2023-05-04T03:21:04.389Z,9.23
2023-05-04T03:23:06.083Z,9.97
2023-05-04T03:25:08.278Z,9.60
2023-05-04T03:27:09.977Z,8.47
2023-05-04T03:29:11.669Z,9.10
2023-05-04T03:31:13.368Z,11.53
2023-05-04T03:33:15.083Z,8.20
2023-05-04T03:35:24.065Z,8.30
2023-05-04T03:37:26.510Z,7.70
2023-05-04T03:39:28.203Z,9.37
2023-05-04T03:41:30.019Z,8.73
2023-05-04T03:43:31.733Z,8.57
2023-05-04T03:45:33.519Z,8.30
2023-05-04T03:47:35.281Z,7.70
2023-05-04T03:49:37.070Z,9.50
2023-05-04T03:51:38.740Z,8.47
2023-05-04T03:53:41.721Z,10.03
2023-05-04T03:55:44.506Z,12.33
2023-05-04T03:57:46.388Z,10.70
2023-05-04T03:59:48.194Z,11.67
2023-05-04T04:01:49.892Z,9.83
2023-05-04T04:03:51.749Z,12.07
2023-05-04T04:05:53.458Z,10.73
2023-05-04T04:07:55.219Z,9.30
2023-05-04T04:09:56.907Z,10.70
2023-05-04T04:11:58.523Z,13.60
2023-05-04T04:14:00.304Z,13.73
2023-05-04T04:16:02.305Z,10.80
2023-05-04T04:18:04.085Z,11.73
2023-05-04T04:20:06.801Z,10.73
2023-05-04T04:22:08.708Z,9.17
2023-05-04T04:24:10.390Z,10.03
2023-05-04T04:26:12.066Z,10.67
2023-05-04T04:28:14.560Z,10.57
2023-05-04T04:30:16.884Z,10.40
2023-05-04T04:32:18.611Z,11.13
2023-05-04T04:34:20.389Z,9.83
2023-05-04T04:36:22.345Z,11.20
2023-05-04T04:38:24.768Z,11.10
2023-05-04T04:40:26.619Z,12.30
2023-05-04T04:42:28.317Z,9.20
2023-05-04T04:44:29.973Z,15.90
2023-05-04T04:46:31.793Z,14.03
2023-05-04T04:48:33.713Z,9.93
2023-05-04T04:50:38.643Z,13.40
2023-05-04T04:52:41.265Z,11.90
2023-05-04T04:54:42.899Z,11.57
2023-05-04T04:56:46.095Z,11.27
2023-05-04T04:58:48.449Z,10.30
2023-05-04T05:00:52.089Z,14.60
2023-05-04T05:02:54.160Z,9.87
2023-05-04T05:04:56.650Z,15.47
2023-05-04T05:06:58.846Z,10.47
2023-05-04T05:09:00.674Z,14.50
2023-05-04T05:11:02.318Z,11.67
2023-05-04T05:13:04.513Z,10.60
2023-05-04T05:15:07.357Z,11.90
2023-05-04T05:17:10.234Z,9.60
2023-05-04T05:19:12.088Z,11.63
2023-05-04T05:21:14.310Z,12.10
2023-05-04T05:23:16.396Z,11.20
2023-05-04T05:25:18.946Z,11.37
2023-05-04T05:27:20.648Z,12.33
2023-05-04T05:29:22.382Z,7.50
2023-05-04T05:31:24.246Z,11.40
2023-05-04T05:33:25.990Z,10.53
2023-05-04T05:35:27.631Z,12.07
2023-05-04T05:37:29.263Z,8.00
2023-05-04T05:39:30.996Z,8.43
2023-05-04T05:41:32.696Z,12.20
2023-05-04T05:43:34.351Z,11.63
2023-05-04T05:45:35.994Z,12.87
2023-05-04T05:47:38.003Z,11.43
2023-05-04T05:49:39.742Z,10.37
2023-05-04T05:51:41.863Z,12.03
2023-05-04T05:53:44.788Z,10.13
2023-05-04T05:55:47.141Z,8.30
2023-05-04T05:57:48.789Z,11.20
2023-05-04T05:59:50.717Z,12.07
2023-05-04T06:01:52.425Z,11.30
2023-05-04T06:03:54.386Z,11.47
2023-05-04T06:05:56.245Z,11.90
2023-05-04T06:07:57.959Z,14.67
2023-05-04T06:09:59.941Z,12.83
2023-05-04T06:12:01.766Z,14.30
2023-05-04T06:14:03.508Z,10.37
2023-05-04T06:16:05.324Z,13.77
2023-05-04T06:18:07.142Z,11.37
2023-05-04T06:20:09.495Z,14.63
2023-05-04T06:22:11.244Z,10.80
2023-05-04T06:24:12.903Z,11.73
2023-05-04T06:26:14.553Z,12.47
2023-05-04T06:28:16.213Z,11.53
2023-05-04T06:30:18.106Z,10.90
2023-05-04T06:32:19.882Z,15.07
2023-05-04T06:34:21.616Z,13.63
2023-05-04T06:36:25.663Z,8.30
2023-05-04T06:38:27.339Z,10.53
2023-05-04T06:40:29.327Z,10.33
2023-05-04T06:42:31.670Z,13.10
2023-05-04T06:44:37.307Z,14.80
2023-05-04T06:46:38.969Z,10.80
2023-05-04T06:48:41.249Z,10.60
2023-05-04T06:50:43.014Z,10.93
2023-05-04T06:52:45.239Z,9.60
2023-05-04T06:54:46.937Z,13.97
2023-05-04T06:56:48.622Z,11.07
2023-05-04T06:58:50.664Z,11.07
2023-05-04T07:00:52.970Z,10.30
2023-05-04T07:02:54.811Z,9.90
2023-05-04T07:04:57.704Z,10.27
2023-05-04T07:06:59.374Z,9.43
2023-05-04T07:09:01.349Z,12.03
2023-05-04T07:11:03.969Z,11.13
2023-05-04T07:13:05.999Z,8.30
2023-05-04T07:15:08.936Z,8.97
2023-05-04T07:17:10.651Z,8.00
2023-05-04T07:19:12.829Z,8.77
2023-05-04T07:21:26.672Z,9.10
2023-05-04T07:23:29.695Z,8.17
2023-05-04T07:25:31.667Z,10.90
2023-05-04T07:27:34.989Z,8.50
2023-05-04T07:29:36.729Z,8.73
2023-05-04T07:31:38.551Z,8.50
2023-05-04T07:33:40.831Z,8.50
2023-05-04T07:35:42.596Z,8.40
2023-05-04T07:37:44.277Z,8.50
2023-05-04T07:39:46.066Z,8.87
2023-05-04T07:41:49.574Z,7.73
2023-05-04T07:43:51.376Z,7.87
2023-05-04T07:45:53.721Z,8.63
2023-05-04T07:47:55.462Z,7.60
2023-05-04T07:49:57.196Z,10.10
2023-05-04T07:51:59.296Z,8.60
2023-05-04T07:54:01.031Z,7.10
2023-05-04T07:56:13.040Z,8.37
2023-05-04T07:58:16.682Z,7.67
2023-05-04T08:00:19.790Z,8.17
2023-05-04T08:02:21.961Z,6.83
2023-05-04T08:04:23.819Z,7.97
2023-05-04T08:06:25.564Z,8.10
2023-05-04T08:08:27.505Z,8.07
2023-05-04T08:10:29.298Z,6.30
2023-05-04T08:12:30.981Z,8.00
2023-05-04T08:14:33.687Z,8.30
2023-05-04T08:16:35.416Z,7.03
2023-05-04T08:18:37.137Z,8.47
2023-05-04T08:20:38.812Z,6.63
2023-05-04T08:22:40.500Z,7.10
2023-05-04T08:24:42.427Z,7.30
2023-05-04T08:26:49.608Z,7.60
2023-05-04T08:29:07.260Z,12.87
2023-05-04T08:31:09.201Z,6.40
2023-05-04T08:33:10.897Z,6.47
2023-05-04T08:35:13.597Z,6.27
2023-05-04T08:37:15.873Z,6.83
2023-05-04T08:39:18.532Z,6.13
2023-05-04T08:41:20.224Z,7.00
2023-05-04T08:43:21.977Z,5.63
2023-05-04T08:45:24.585Z,5.60
2023-05-04T08:47:27.576Z,6.20
2023-05-04T08:49:30.540Z,6.00
2023-05-04T08:51:35.623Z,5.10
2023-05-04T08:53:41.135Z,5.40
2023-05-04T08:55:46.833Z,11.13
2023-05-04T08:57:51.187Z,5.47
2023-05-04T08:59:54.468Z,4.37
2023-05-04T09:01:59.459Z,5.07
2023-05-04T09:04:02.523Z,5.13
2023-05-04T09:06:04.276Z,6.43
2023-05-04T09:08:06.790Z,6.13
2023-05-04T09:10:09.173Z,6.53
2023-05-04T09:12:10.831Z,7.93
2023-05-04T09:14:12.512Z,6.47
2023-05-04T09:16:16.230Z,6.53
2023-05-04T09:18:18.044Z,5.33
2023-05-04T09:20:19.943Z,5.63
2023-05-04T09:22:21.741Z,5.53
2023-05-04T09:24:27.823Z,5.40
2023-05-04T09:26:33.327Z,5.40
2023-05-04T09:28:36.817Z,5.53
2023-05-04T09:30:38.541Z,5.30
2023-05-04T09:32:47.237Z,9.23
2023-05-04T09:34:53.096Z,7.33
2023-05-04T09:37:02.126Z,4.77
2023-05-04T09:39:14.092Z,6.17
2023-05-04T09:41:16.059Z,4.60
2023-05-04T09:43:18.876Z,5.63
2023-05-04T09:45:21.091Z,4.63
2023-05-04T09:47:23.174Z,5.87
2023-05-04T09:49:31.988Z,6.40
2023-05-04T09:51:34.437Z,7.17
2023-05-04T09:53:40.181Z,4.03
2023-05-04T09:55:45.408Z,4.70
2023-05-04T09:57:49.282Z,6.20
2023-05-04T09:59:52.252Z,7.57
2023-05-04T10:01:54.224Z,7.47
2023-05-04T10:03:56.494Z,6.03
2023-05-04T10:06:00.286Z,6.00
2023-05-04T10:08:02.576Z,6.73
2023-05-04T10:10:05.939Z,6.07
2023-05-04T10:12:08.440Z,5.20
2023-05-04T10:14:10.532Z,6.13
2023-05-04T10:16:36.255Z,7.13
2023-05-04T10:19:03.801Z,5.90
2023-05-04T10:21:30.102Z,6.07
2023-05-04T10:23:34.747Z,5.80
2023-05-04T10:26:17.620Z,6.80
2023-05-04T10:28:43.468Z,5.50
2023-05-04T10:30:45.431Z,5.97
2023-05-04T10:32:55.630Z,5.43
2023-05-04T10:35:08.336Z,8.40
2023-05-04T10:37:17.195Z,6.63
2023-05-04T10:39:23.004Z,6.50
2023-05-04T10:41:24.690Z,8.70
2023-05-04T10:43:29.097Z,6.27
2023-05-04T10:45:37.707Z,5.97
2023-05-04T10:47:40.789Z,6.30
2023-05-04T10:49:42.760Z,6.50
2023-05-04T10:51:49.332Z,6.93
2023-05-04T10:53:52.808Z,6.93
2023-05-04T10:55:54.524Z,4.63
2023-05-04T10:57:57.944Z,5.73
2023-05-04T10:59:59.898Z,4.57
2023-05-04T11:02:02.929Z,4.37
2023-05-04T11:04:04.802Z,7.30
2023-05-04T11:06:21.071Z,4.70
2023-05-04T11:08:26.796Z,6.43
2023-05-04T11:10:28.556Z,6.40
2023-05-04T11:12:31.963Z,5.47
2023-05-04T11:14:41.343Z,6.30
2023-05-04T11:16:43.102Z,5.07
2023-05-04T11:18:44.938Z,7.73
2023-05-04T11:20:46.643Z,5.90
2023-05-04T11:22:49.450Z,5.30
2023-05-04T11:24:51.426Z,5.33
2023-05-04T11:26:53.121Z,5.10
2023-05-04T11:28:54.956Z,5.73
2023-05-04T11:30:57.564Z,4.73
2023-05-04T11:33:02.379Z,5.20
2023-05-04T11:35:08.353Z,4.77
2023-05-04T11:37:10.278Z,8.00
2023-05-04T11:39:12.036Z,7.30
2023-05-04T11:41:13.711Z,5.50
2023-05-04T11:43:16.999Z,5.40
2023-05-04T11:45:25.647Z,5.30
2023-05-04T11:47:27.486Z,6.03
2023-05-04T11:49:31.006Z,5.35
2023-05-04T11:51:32.660Z,7.32
2023-05-04T11:53:38.784Z,5.60
2023-05-04T11:55:41.891Z,5.53
2023-05-04T11:57:43.610Z,5.72
2023-05-04T11:59:51.515Z,6.23
2023-05-04T12:01:53.219Z,7.25
2023-05-04T12:03:55.131Z,7.50
2023-05-04T12:05:58.268Z,5.88
2023-05-04T12:08:00.557Z,6.35
2023-05-04T12:10:02.332Z,6.72
2023-05-04T12:12:04.188Z,7.93
2023-05-04T12:14:11.589Z,5.20
2023-05-04T12:16:23.404Z,6.03
2023-05-04T12:18:29.695Z,7.03
2023-05-04T12:20:31.674Z,6.78
2023-05-04T12:22:35.182Z,6.65
2023-05-04T12:24:36.983Z,6.53
2023-05-04T12:26:38.653Z,6.88
2023-05-04T12:28:42.738Z,5.10
2023-05-04T12:30:44.412Z,6.38
2023-05-04T12:32:46.330Z,5.82
2023-05-04T12:34:48.041Z,5.97
2023-05-04T12:36:50.879Z,5.47
2023-05-04T12:38:52.865Z,4.60
2023-05-04T12:40:55.904Z,5.93
2023-05-04T12:42:57.556Z,5.60
2023-05-04T12:45:00.088Z,4.55
2023-05-04T12:47:01.855Z,6.18
2023-05-04T12:49:03.507Z,6.25
2023-05-04T12:51:05.413Z,6.50
2023-05-04T12:53:07.479Z,6.55
2023-05-04T12:55:09.351Z,5.85
2023-05-04T12:57:12.278Z,6.18
2023-05-04T12:59:13.962Z,6.22
2023-05-04T13:01:16.759Z,6.40
2023-05-04T13:03:18.837Z,8.75
2023-05-04T13:05:22.731Z,5.43
2023-05-04T13:07:24.410Z,8.05
2023-05-04T13:09:26.070Z,6.60
2023-05-04T13:11:27.753Z,5.15
2023-05-04T13:13:29.823Z,6.63
2023-05-04T13:15:32.989Z,9.02
2023-05-04T13:17:34.796Z,7.70
2023-05-04T13:19:36.744Z,7.60
2023-05-04T13:21:38.373Z,7.45
2023-05-04T13:23:40.069Z,8.10
2023-05-04T13:25:42.099Z,7.50
2023-05-04T13:27:43.791Z,7.63
2023-05-04T13:29:45.437Z,7.35
2023-05-04T13:31:47.522Z,5.88
2023-05-04T13:33:50.514Z,7.40
2023-05-04T13:35:52.369Z,8.25
2023-05-04T13:37:54.067Z,7.60
2023-05-04T13:39:56.333Z,7.65
2023-05-04T13:41:58.010Z,7.82
2023-05-04T13:43:59.687Z,7.55
2023-05-04T13:46:04.691Z,8.40
2023-05-04T13:48:06.449Z,7.97
2023-05-04T13:50:08.657Z,6.35
2023-05-04T13:52:10.662Z,6.50
2023-05-04T13:54:12.893Z,6.57
2023-05-04T13:56:14.559Z,6.82
2023-05-04T13:58:16.340Z,7.22
2023-05-04T14:00:18.306Z,6.68
2023-05-04T14:02:20.110Z,8.63
2023-05-04T14:04:22.578Z,6.45
2023-05-04T14:06:26.000Z,6.15
2023-05-04T14:08:27.692Z,9.93
2023-05-04T14:10:29.366Z,6.90
2023-05-04T14:12:31.170Z,6.32
2023-05-04T14:14:33.050Z,8.10
2023-05-04T14:16:37.351Z,7.10
2023-05-04T14:18:39.307Z,6.97
2023-05-04T14:20:41.032Z,6.35
2023-05-04T14:22:42.884Z,7.53
2023-05-04T14:24:44.572Z,6.47
2023-05-04T14:26:46.298Z,6.70
2023-05-04T14:28:48.671Z,7.15
2023-05-04T14:30:50.936Z,6.20
2023-05-04T14:32:56.289Z,5.55
2023-05-04T14:35:08.220Z,6.90
2023-05-04T14:37:10.222Z,6.32
2023-05-04T14:39:11.911Z,7.75
2023-05-04T14:41:14.208Z,7.53
2023-05-04T14:43:15.893Z,11.13
2023-05-04T14:45:17.774Z,8.85
2023-05-04T14:47:20.150Z,5.80
2023-05-04T14:49:35.889Z,7.03
2023-05-04T14:51:39.237Z,5.47
2023-05-04T14:53:41.309Z,7.95
2023-05-04T14:55:43.499Z,6.53
2023-05-04T14:57:45.222Z,6.45
2023-05-04T14:59:46.924Z,6.57
2023-05-04T15:01:48.935Z,7.82
2023-05-04T15:03:51.094Z,9.13
2023-05-04T15:05:52.996Z,8.45
2023-05-04T15:07:54.649Z,5.63
2023-05-04T15:09:56.489Z,5.43
2023-05-04T15:11:58.307Z,6.60
2023-05-04T15:14:00.006Z,6.22
2023-05-04T15:16:01.673Z,8.35
2023-05-04T15:18:03.535Z,6.43
2023-05-04T15:20:06.401Z,6.13
2023-05-04T15:22:08.499Z,7.05
2023-05-04T15:24:10.308Z,8.25
2023-05-04T15:26:11.963Z,5.90
2023-05-04T15:28:13.774Z,6.90
2023-05-04T15:30:15.663Z,6.68
2023-05-04T15:32:17.322Z,9.20
2023-05-04T15:34:19.085Z,6.22
2023-05-04T15:36:20.857Z,6.07
2023-05-04T15:38:22.657Z,5.93
2023-05-04T15:40:24.346Z,5.82
2023-05-04T15:42:26.076Z,6.82
2023-05-04T15:44:28.035Z,6.13
2023-05-04T15:46:29.797Z,5.78
2023-05-04T15:48:31.522Z,8.18
2023-05-04T15:50:33.539Z,7.10
2023-05-04T15:52:35.209Z,6.95
2023-05-04T15:54:36.914Z,7.25
2023-05-04T15:56:38.605Z,7.20
2023-05-04T15:58:40.291Z,6.05
2023-05-04T16:00:42.197Z,5.75
2023-05-04T16:02:44.012Z,6.40
2023-05-04T16:04:45.822Z,6.97
2023-05-04T16:06:47.823Z,6.20
2023-05-04T16:08:49.584Z,5.73
2023-05-04T16:10:53.223Z,7.30
2023-05-04T16:12:55.075Z,4.70
2023-05-04T16:14:56.803Z,5.10
2023-05-04T16:17:02.680Z,5.77
2023-05-04T16:19:04.360Z,6.83
2023-05-04T16:21:06.101Z,4.47
2023-05-04T16:23:07.803Z,5.80
2023-05-04T16:25:43.932Z,6.07
2023-05-04T16:27:45.644Z,6.10
2023-05-04T16:29:47.280Z,5.32
2023-05-04T16:31:48.931Z,6.00
2023-05-04T16:33:50.662Z,4.88
2023-05-04T16:35:52.562Z,6.03
2023-05-04T16:37:54.233Z,6.25
2023-05-04T16:39:56.498Z,8.90
2023-05-04T16:41:58.747Z,7.10
2023-05-04T16:44:00.419Z,5.90
2023-05-04T16:46:02.655Z,7.43
2023-05-04T16:48:05.620Z,6.60
2023-05-04T16:50:09.282Z,8.00
2023-05-04T16:52:11.097Z,5.53
2023-05-04T16:54:12.793Z,6.73
2023-05-04T16:56:20.047Z,6.20
2023-05-04T16:58:21.732Z,5.53
2023-05-04T17:00:23.823Z,5.50
2023-05-04T17:02:26.036Z,5.57
2023-05-04T17:04:29.492Z,6.90
2023-05-04T17:06:31.298Z,6.90
2023-05-04T17:08:34.806Z,8.20
2023-05-04T17:10:36.460Z,5.27
2023-05-04T17:12:38.505Z,5.67
2023-05-04T17:14:40.401Z,5.50
2023-05-04T17:16:42.064Z,6.17
2023-05-04T17:18:43.762Z,6.00
2023-05-04T17:20:45.414Z,5.90
2023-05-04T17:22:47.855Z,6.03
2023-05-04T17:24:49.533Z,7.57
2023-05-04T17:26:51.223Z,4.90
2023-05-04T17:28:52.916Z,7.70
2023-05-04T17:30:54.583Z,6.00
2023-05-04T17:32:57.349Z,6.80
2023-05-04T17:35:05.523Z,5.90
2023-05-04T17:37:13.733Z,8.87
2023-05-04T17:39:15.565Z,6.63
2023-05-04T17:41:17.683Z,6.90
2023-05-04T17:43:19.428Z,6.33
2023-05-04T17:45:21.556Z,6.73
2023-05-04T17:47:23.223Z,5.77
2023-05-04T17:49:25.447Z,7.47
2023-05-04T17:51:27.095Z,6.47
2023-05-04T17:53:29.300Z,10.50
2023-05-04T17:55:31.082Z,4.73
2023-05-04T17:57:32.767Z,5.53
2023-05-04T17:59:34.477Z,5.67
2023-05-04T18:01:36.137Z,5.60
2023-05-04T18:03:37.981Z,6.30
2023-05-04T18:05:41.572Z,5.50
2023-05-04T18:07:43.251Z,6.60
2023-05-04T18:09:44.892Z,5.60
2023-05-04T18:11:47.237Z,5.73
2023-05-04T18:13:48.926Z,4.57
2023-05-04T18:15:50.975Z,5.90
2023-05-04T18:17:52.874Z,6.60
2023-05-04T18:19:55.291Z,6.30
2023-05-04T18:21:56.955Z,6.30
2023-05-04T18:23:58.583Z,5.80
2023-05-04T18:26:00.309Z,5.67
2023-05-04T18:28:02.226Z,6.70
2023-05-04T18:30:06.177Z,5.80
2023-05-04T18:32:08.896Z,6.20
2023-05-04T18:34:10.623Z,7.63
2023-05-04T18:36:12.464Z,5.50
2023-05-04T18:38:14.126Z,6.30
2023-05-04T18:40:15.844Z,7.00
2023-05-04T18:42:17.947Z,6.50
2023-05-04T18:44:19.607Z,5.10
2023-05-04T18:46:22.179Z,6.33
2023-05-04T18:48:23.855Z,6.90
2023-05-04T18:50:25.478Z,6.30
2023-05-04T18:52:27.154Z,5.80
2023-05-04T18:54:32.419Z,5.53
2023-05-04T18:56:34.182Z,7.03
2023-05-04T18:58:36.979Z,4.80
2023-05-04T19:00:38.609Z,6.87
2023-05-04T19:02:40.286Z,7.40
2023-05-04T19:04:42.872Z,5.23
2023-05-04T19:06:45.414Z,4.30
2023-05-04T19:08:47.085Z,5.53
2023-05-04T19:10:49.715Z,5.60
2023-05-04T19:12:51.705Z,8.00
2023-05-04T19:14:54.276Z,5.50
2023-05-04T19:16:55.968Z,5.97
2023-05-04T19:18:57.819Z,8.13
2023-05-04T19:21:04.500Z,7.37
2023-05-04T19:23:06.288Z,6.70
2023-05-04T19:25:09.546Z,6.90
2023-05-04T19:27:11.880Z,5.57
2023-05-04T19:29:13.978Z,8.80
2023-05-04T19:31:17.114Z,5.90
2023-05-04T19:33:18.805Z,7.70
2023-05-04T19:35:20.521Z,8.60
2023-05-04T19:37:22.225Z,9.57
2023-05-04T19:39:23.909Z,6.40
2023-05-04T19:41:26.681Z,8.23
2023-05-04T19:43:28.532Z,6.93
2023-05-04T19:45:30.423Z,6.67
2023-05-04T19:47:32.349Z,6.60
2023-05-04T19:49:34.410Z,6.43
2023-05-04T19:51:36.102Z,6.20
2023-05-04T19:53:37.776Z,8.23
2023-05-04T19:55:39.498Z,6.90
2023-05-04T19:57:41.182Z,8.50
2023-05-04T19:59:44.807Z,7.47
2023-05-04T20:01:47.939Z,7.10
2023-05-04T20:03:49.975Z,8.47
2023-05-04T20:05:52.597Z,8.07
2023-05-04T20:07:54.571Z,6.63
2023-05-04T20:09:57.160Z,6.93
2023-05-04T20:11:59.088Z,7.63
2023-05-04T20:14:01.136Z,8.97
2023-05-04T20:16:02.849Z,8.17
2023-05-04T20:18:04.928Z,7.50
2023-05-04T20:20:07.159Z,7.90
2023-05-04T20:22:09.432Z,6.77
2023-05-04T20:24:12.274Z,6.70
2023-05-04T20:26:13.908Z,7.80
2023-05-04T20:28:16.463Z,7.63
2023-05-04T20:30:18.257Z,7.87
2023-05-04T20:32:19.895Z,6.60
2023-05-04T20:34:21.784Z,9.50
2023-05-04T20:36:23.543Z,6.80
2023-05-04T20:38:25.350Z,9.70
2023-05-04T20:40:27.056Z,9.93
2023-05-04T20:42:29.273Z,6.93
2023-05-04T20:44:30.993Z,11.00
2023-05-04T20:46:32.744Z,8.43
2023-05-04T20:48:35.419Z,5.93
2023-05-04T20:50:37.991Z,9.07
2023-05-04T20:52:40.151Z,8.70
2023-05-04T20:54:41.895Z,9.00
2023-05-04T20:56:43.577Z,8.73
2023-05-04T20:58:45.218Z,7.40
2023-05-04T21:00:47.066Z,8.20
2023-05-04T21:02:48.817Z,8.00
2023-05-04T21:04:50.626Z,8.63
2023-05-04T21:06:53.175Z,7.00
2023-05-04T21:08:54.810Z,8.30
2023-05-04T21:10:56.523Z,8.97
2023-05-04T21:12:58.296Z,7.73
2023-05-04T21:15:00.058Z,8.70
2023-05-04T21:17:01.814Z,8.17
2023-05-04T21:19:03.483Z,8.10
2023-05-04T21:21:05.416Z,9.67
2023-05-04T21:23:07.572Z,9.40
2023-05-04T21:25:09.815Z,7.00
2023-05-04T21:27:11.635Z,9.30
2023-05-04T21:29:13.520Z,8.80
2023-05-04T21:31:15.308Z,7.10
2023-05-04T21:33:17.013Z,8.17
2023-05-04T21:35:21.125Z,9.50
2023-05-04T21:37:22.841Z,6.93
2023-05-04T21:39:24.623Z,9.20
2023-05-04T21:41:26.266Z,6.67
2023-05-04T21:43:27.930Z,6.47
2023-05-04T21:45:32.914Z,6.20
2023-05-04T21:47:36.139Z,7.13
2023-05-04T21:49:37.953Z,9.90
2023-05-04T21:51:39.637Z,10.03
2023-05-04T21:53:43.292Z,7.73
2023-05-04T21:55:44.897Z,8.87
2023-05-04T21:57:46.528Z,7.10
2023-05-04T21:59:49.582Z,9.33
2023-05-04T22:01:51.558Z,10.60
2023-05-04T22:03:53.212Z,9.10
2023-05-04T22:05:57.587Z,6.40
2023-05-04T22:08:00.783Z,12.20
2023-05-04T22:10:06.144Z,13.27
2023-05-04T22:12:08.164Z,8.57
2023-05-04T22:14:09.832Z,7.40
2023-05-04T22:16:11.552Z,9.67
2023-05-04T22:18:13.716Z,7.70
2023-05-04T22:20:15.487Z,10.13
2023-05-04T22:22:17.167Z,8.23
2023-05-04T22:24:18.851Z,7.43
2023-05-04T22:26:20.708Z,14.60
2023-05-04T22:28:22.343Z,8.73
2023-05-04T22:30:25.809Z,7.50
2023-05-04T22:32:27.538Z,9.30
2023-05-04T22:34:29.228Z,7.13
2023-05-04T22:36:31.033Z,7.97
2023-05-04T22:38:32.746Z,8.20
2023-05-04T22:40:34.359Z,11.73
2023-05-04T22:42:36.077Z,7.90
2023-05-04T22:44:37.774Z,6.93
2023-05-04T22:46:39.690Z,9.60
2023-05-04T22:48:41.548Z,10.13
2023-05-04T22:50:43.658Z,10.30
2023-05-04T22:52:45.443Z,8.60
2023-05-04T22:54:47.256Z,8.90
2023-05-04T22:56:48.932Z,11.53
2023-05-04T22:58:50.949Z,8.63
2023-05-04T23:00:52.691Z,9.20
2023-05-04T23:02:54.483Z,10.07
2023-05-04T23:04:57.076Z,8.87
2023-05-04T23:06:58.717Z,8.20
2023-05-04T23:09:02.295Z,9.53
2023-05-04T23:11:04.086Z,11.03
2023-05-04T23:13:05.905Z,8.10
2023-05-04T23:15:08.570Z,9.83
2023-05-04T23:17:12.812Z,10.47
2023-05-04T23:19:14.507Z,9.10
2023-05-04T23:21:16.180Z,8.43
2023-05-04T23:23:17.869Z,9.20
2023-05-04T23:25:19.713Z,11.73
2023-05-04T23:27:21.682Z,7.00
2023-05-04T23:29:23.426Z,11.90
2023-05-04T23:31:25.174Z,9.03
2023-05-04T23:33:26.889Z,7.57
2023-05-04T23:35:28.556Z,9.90
2023-05-04T23:37:33.449Z,10.20
2023-05-04T23:39:35.094Z,10.03
2023-05-04T23:41:36.840Z,9.60
2023-05-04T23:43:38.714Z,9.73
2023-05-04T23:45:40.474Z,7.63
2023-05-04T23:47:42.208Z,8.70
2023-05-04T23:49:44.167Z,9.33
2023-05-04T23:51:45.816Z,8.23
2023-05-04T23:53:47.499Z,9.20
2023-05-04T23:55:57.890Z,9.03
2023-05-04T23:57:59.604Z,11.40
